createdAt,value
2018-04-18T00:00:23.482Z,102059
2018-04-18T00:02:52.974Z,102059
2018-04-18T00:05:21.279Z,102062
2018-04-18T00:07:50.533Z,102060
2018-04-18T00:10:18.928Z,102057
2018-04-18T00:12:47.284Z,102056
2018-04-18T00:15:15.699Z,102058
2018-04-18T00:17:44.914Z,102054
2018-04-18T00:20:13.365Z,102060
2018-04-18T00:22:41.888Z,102062
2018-04-18T00:25:10.164Z,102063
2018-04-18T00:27:38.695Z,102065
2018-04-18T00:30:08.573Z,102066
2018-04-18T00:32:37.073Z,102068
2018-04-18T00:35:05.404Z,102068
2018-04-18T00:37:35.744Z,102068
2018-04-18T00:40:04.044Z,102068
2018-04-18T00:42:32.541Z,102065
2018-04-18T00:45:00.824Z,102075
2018-04-18T00:47:29.221Z,102080
2018-04-18T00:49:58.411Z,102073
2018-04-18T00:52:26.742Z,102074
2018-04-18T00:54:55.235Z,102074
2018-04-18T00:57:23.544Z,102081
2018-04-18T00:59:51.895Z,102077
2018-04-18T01:02:20.175Z,102079
2018-04-18T01:04:48.486Z,102082
2018-04-18T01:07:16.809Z,102088
2018-04-18T01:09:45.277Z,102086
2018-04-18T01:12:13.630Z,102088
2018-04-18T01:14:42.775Z,102091
2018-04-18T01:17:11.496Z,102089
2018-04-18T01:19:39.761Z,102094
2018-04-18T01:22:08.064Z,102092
2018-04-18T01:24:37.246Z,102088
2018-04-18T01:27:05.565Z,102087
2018-04-18T01:29:33.966Z,102091
2018-04-18T01:32:02.410Z,102093
2018-04-18T01:34:31.554Z,102090
2018-04-18T01:36:59.899Z,102094
2018-04-18T01:39:28.200Z,102102
2018-04-18T01:41:56.726Z,102100
2018-04-18T01:44:24.992Z,102101
2018-04-18T01:46:53.298Z,102095
2018-04-18T01:49:23.097Z,102097
2018-04-18T01:51:52.315Z,102102
2018-04-18T01:54:20.867Z,102103
2018-04-18T01:56:50.011Z,102107
2018-04-18T01:59:18.408Z,102111
2018-04-18T02:01:46.737Z,102113
2018-04-18T02:04:15.906Z,102113
2018-04-18T02:06:44.315Z,102119
2018-04-18T02:09:13.423Z,102120
2018-04-18T02:11:41.723Z,102121
2018-04-18T02:14:10.011Z,102129
2018-04-18T02:16:38.299Z,102134
2018-04-18T02:19:06.616Z,102134
2018-04-18T02:21:35.764Z,102147
2018-04-18T02:24:04.098Z,102142
2018-04-18T02:26:32.465Z,102143
2018-04-18T02:29:01.534Z,102143
2018-04-18T02:31:29.833Z,102146
2018-04-18T02:33:59.006Z,102140
2018-04-18T02:36:27.292Z,102145
2018-04-18T02:38:55.594Z,102147
2018-04-18T02:41:23.921Z,102150
2018-04-18T02:43:52.332Z,102157
2018-04-18T02:46:21.408Z,102157
2018-04-18T02:48:49.702Z,102154
2018-04-18T02:51:17.993Z,102154
2018-04-18T02:53:47.045Z,102152
2018-04-18T02:56:15.360Z,102159
2018-04-18T02:58:44.196Z,102158
2018-04-18T03:01:12.617Z,102164
2018-04-18T03:03:41.820Z,102165
2018-04-18T03:06:10.954Z,102172
2018-04-18T03:08:39.262Z,102171
2018-04-18T03:11:07.723Z,102177
2018-04-18T03:13:36.169Z,102181
2018-04-18T03:16:04.637Z,102183
2018-04-18T03:18:33.151Z,102185
2018-04-18T03:21:01.418Z,102190
2018-04-18T03:23:29.795Z,102189
2018-04-18T03:25:58.167Z,102192
2018-04-18T03:28:26.582Z,102194
2018-04-18T03:30:54.889Z,102197
2018-04-18T03:33:23.455Z,102202
2018-04-18T03:35:51.912Z,102207
2018-04-18T03:38:20.266Z,102207
2018-04-18T03:40:48.580Z,102214
2018-04-18T03:43:16.858Z,102220
2018-04-18T03:45:45.276Z,102212
2018-04-18T03:48:14.466Z,102216
2018-04-18T03:50:42.815Z,102213
2018-04-18T03:53:11.235Z,102218
2018-04-18T03:55:40.513Z,102215
2018-04-18T03:58:08.894Z,102219
2018-04-18T04:00:37.217Z,102221
2018-04-18T04:03:05.526Z,102229
2018-04-18T04:05:33.969Z,102228
2018-04-18T04:08:02.770Z,102230
2018-04-18T04:10:32.754Z,102230
2018-04-18T04:13:03.031Z,102236
2018-04-18T04:15:31.474Z,102236
2018-04-18T04:18:17.541Z,102236
2018-04-18T04:21:04.418Z,102241
2018-04-18T04:23:50.413Z,102238
2018-04-18T04:26:18.902Z,102241
2018-04-18T04:28:48.148Z,102243
2018-04-18T04:31:16.542Z,102246
2018-04-18T04:33:46.772Z,102248
2018-04-18T04:36:15.122Z,102252
2018-04-18T04:38:43.950Z,102249
2018-04-18T04:41:12.293Z,102257
2018-04-18T04:43:40.754Z,102263
2018-04-18T04:46:09.855Z,102265
2018-04-18T04:48:39.114Z,102268
2018-04-18T04:51:07.591Z,102270
2018-04-18T04:53:35.926Z,102272
2018-04-18T04:56:04.314Z,102278
2018-04-18T04:58:32.884Z,102278
2018-04-18T05:01:01.375Z,102279
2018-04-18T05:03:29.776Z,102283
2018-04-18T05:05:58.128Z,102286
2018-04-18T05:08:27.576Z,102287
2018-04-18T05:10:55.881Z,102285
2018-04-18T05:13:25.121Z,102287
2018-04-18T05:15:53.410Z,102287
2018-04-18T05:18:21.900Z,102294
2018-04-18T05:20:50.216Z,102293
2018-04-18T05:23:19.426Z,102301
2018-04-18T05:25:47.816Z,102306
2018-04-18T05:28:16.241Z,102304
2018-04-18T05:30:44.561Z,102310
2018-04-18T05:33:13.808Z,102310
2018-04-18T05:35:42.115Z,102316
2018-04-18T05:38:10.881Z,102321
2018-04-18T05:40:39.215Z,102325
2018-04-18T05:43:07.532Z,102325
2018-04-18T05:45:36.425Z,102327
2018-04-18T05:48:04.756Z,102327
2018-04-18T05:50:33.249Z,102330
2018-04-18T05:53:01.539Z,102307
2018-04-18T05:55:29.889Z,102330
2018-04-18T05:57:58.457Z,102333
2018-04-18T06:00:27.530Z,102327
2018-04-18T06:02:56.226Z,102331
2018-04-18T06:05:24.525Z,102330
2018-04-18T06:07:53.649Z,102329
2018-04-18T06:10:21.943Z,102334
2018-04-18T06:12:50.776Z,102333
2018-04-18T06:15:19.981Z,102339
2018-04-18T06:17:49.176Z,102344
2018-04-18T06:20:18.275Z,102339
2018-04-18T06:22:47.354Z,102342
2018-04-18T06:25:16.465Z,102342
2018-04-18T06:27:45.518Z,102345
2018-04-18T06:30:13.891Z,102345
2018-04-18T06:32:42.310Z,102347
2018-04-18T06:35:11.361Z,102351
2018-04-18T06:37:39.700Z,102350
2018-04-18T06:40:08.017Z,102354
2018-04-18T06:42:36.325Z,102357
2018-04-18T06:45:06.113Z,102356
2018-04-18T06:47:34.437Z,102361
2018-04-18T06:50:02.745Z,102365
2018-04-18T06:52:31.056Z,102364
2018-04-18T06:54:59.321Z,102361
2018-04-18T06:57:27.627Z,102363
2018-04-18T06:59:56.715Z,102366
2018-04-18T07:02:24.980Z,102367
2018-04-18T07:04:53.295Z,102370
2018-04-18T07:07:21.608Z,102372
2018-04-18T07:09:49.942Z,102373
2018-04-18T07:12:18.371Z,102375
2018-04-18T07:14:47.747Z,102373
2018-04-18T07:17:16.285Z,102371
2018-04-18T07:19:44.708Z,102372
2018-04-18T07:22:13.023Z,102372
2018-04-18T07:24:41.371Z,102373
2018-04-18T07:27:09.723Z,102373
2018-04-18T07:29:38.028Z,102366
2018-04-18T07:32:06.506Z,102365
2018-04-18T07:34:34.817Z,102368
2018-04-18T07:37:03.197Z,102372
2018-04-18T07:39:31.483Z,102380
2018-04-18T07:42:00.596Z,102376
2018-04-18T07:44:29.806Z,102376
2018-04-18T07:46:58.135Z,102378
2018-04-18T07:49:26.483Z,102378
2018-04-18T07:51:54.796Z,102382
2018-04-18T07:54:23.116Z,102385
2018-04-18T07:56:51.504Z,102379
2018-04-18T07:59:19.813Z,102379
2018-04-18T08:01:48.462Z,102382
2018-04-18T08:04:17.068Z,102379
2018-04-18T08:06:45.626Z,102380
2018-04-18T08:09:14.120Z,102379
2018-04-18T08:11:42.639Z,102384
2018-04-18T08:14:12.113Z,102383
2018-04-18T08:16:40.434Z,102384
2018-04-18T08:19:09.523Z,102376
2018-04-18T08:21:37.844Z,102376
2018-04-18T08:24:06.522Z,102373
2018-04-18T08:26:34.823Z,102374
2018-04-18T08:29:03.217Z,102374
2018-04-18T08:31:31.529Z,102375
2018-04-18T08:33:59.940Z,102370
2018-04-18T08:36:28.258Z,102373
2018-04-18T08:38:56.572Z,102375
2018-04-18T08:41:25.644Z,102374
2018-04-18T08:43:53.997Z,102373
2018-04-18T08:46:23.708Z,102369
2018-04-18T08:48:52.126Z,102369
2018-04-18T08:51:21.312Z,102369
2018-04-18T08:53:49.598Z,102362
2018-04-18T08:56:17.917Z,102362
2018-04-18T08:58:46.187Z,102364
2018-04-18T09:01:14.585Z,102362
2018-04-18T09:03:43.040Z,102359
2018-04-18T09:06:11.556Z,102365
2018-04-18T09:08:39.967Z,102359
2018-04-18T09:11:08.362Z,102363
2018-04-18T09:13:37.429Z,102360
2018-04-18T09:16:05.734Z,102360
2018-04-18T09:18:34.958Z,102360
2018-04-18T09:21:03.327Z,102361
2018-04-18T09:23:31.802Z,102357
2018-04-18T09:26:00.365Z,102359
2018-04-18T09:28:29.556Z,102356
2018-04-18T09:30:58.764Z,102355
2018-04-18T09:33:27.235Z,102357
2018-04-18T09:35:56.305Z,102354
2018-04-18T09:38:24.619Z,102355
2018-04-18T09:40:53.845Z,102352
2018-04-18T09:43:22.225Z,102351
2018-04-18T09:45:50.690Z,102347
2018-04-18T09:48:19.016Z,102345
2018-04-18T09:50:48.243Z,102345
2018-04-18T09:53:18.453Z,102346
2018-04-18T09:55:46.830Z,102341
2018-04-18T09:58:15.339Z,102343
2018-04-18T10:00:49.338Z,102344
2018-04-18T10:03:18.650Z,102340
2018-04-18T10:05:48.163Z,102346
2018-04-18T10:08:16.497Z,102344
2018-04-18T10:10:44.833Z,102346
2018-04-18T10:13:13.396Z,102341
2018-04-18T10:15:41.753Z,102337
2018-04-18T10:18:10.932Z,102338
2018-04-18T10:20:39.515Z,102338
2018-04-18T10:23:07.879Z,102337
2018-04-18T10:25:36.202Z,102341
2018-04-18T10:28:06.195Z,102338
2018-04-18T10:30:35.337Z,102334
2018-04-18T10:33:03.625Z,102335
2018-04-18T10:35:32.100Z,102330
2018-04-18T10:38:00.416Z,102326
2018-04-18T10:40:28.756Z,102324
2018-04-18T10:42:57.054Z,102329
2018-04-18T10:45:25.390Z,102325
2018-04-18T10:47:53.708Z,102319
2018-04-18T10:50:22.021Z,102315
2018-04-18T10:52:51.225Z,102317
2018-04-18T10:55:20.420Z,102316
2018-04-18T10:57:49.553Z,102315
2018-04-18T11:00:18.852Z,102316
2018-04-18T11:02:47.547Z,102317
2018-04-18T11:05:15.861Z,102311
2018-04-18T11:07:44.159Z,102305
2018-04-18T11:10:13.233Z,102303
2018-04-18T11:12:41.557Z,102300
2018-04-18T11:15:09.871Z,102302
2018-04-18T11:17:38.220Z,102303
2018-04-18T11:20:06.570Z,102308
2018-04-18T11:22:35.622Z,102303
2018-04-18T11:25:04.001Z,102299
2018-04-18T11:27:32.394Z,102299
2018-04-18T11:30:01.489Z,102299
2018-04-18T11:32:29.813Z,102292
2018-04-18T11:34:58.174Z,102293
2018-04-18T11:37:26.696Z,102286
2018-04-18T11:39:55.149Z,102287
2018-04-18T11:42:23.464Z,102285
2018-04-18T11:44:51.808Z,102279
2018-04-18T11:47:20.270Z,102276
2018-04-18T11:49:48.626Z,102278
2018-04-18T11:52:17.263Z,102266
2018-04-18T11:54:45.681Z,102268
2018-04-18T11:57:14.019Z,102268
2018-04-18T11:59:42.958Z,102263
2018-04-18T12:02:13.341Z,102259
2018-04-18T12:04:41.638Z,102255
2018-04-18T12:07:10.007Z,102256
2018-04-18T12:09:38.389Z,102253
2018-04-18T12:12:06.834Z,102255
2018-04-18T12:14:35.359Z,102257
2018-04-18T12:17:03.675Z,102254
2018-04-18T12:19:32.019Z,102250
2018-04-18T12:22:00.378Z,102247
2018-04-18T12:24:28.737Z,102250
2018-04-18T12:26:57.229Z,102256
2018-04-18T12:29:25.697Z,102248
2018-04-18T12:31:54.244Z,102246
2018-04-18T12:34:23.356Z,102252
2018-04-18T12:36:51.752Z,102242
2018-04-18T12:39:20.122Z,102239
2018-04-18T12:41:48.467Z,102239
2018-04-18T12:44:17.559Z,102238
2018-04-18T12:46:45.968Z,102243
2018-04-18T12:49:14.431Z,102235
2018-04-18T12:51:42.868Z,102238
2018-04-18T12:54:11.238Z,102234
2018-04-18T12:56:39.566Z,102228
2018-04-18T12:59:08.720Z,102218
2018-04-18T13:01:37.617Z,102222
2018-04-18T13:04:06.087Z,102222
2018-04-18T13:06:34.416Z,102213
2018-04-18T13:09:03.680Z,102208
2018-04-18T13:11:32.016Z,102202
2018-04-18T13:14:00.335Z,102203
2018-04-18T13:16:28.696Z,102200
2018-04-18T13:18:56.996Z,102197
2018-04-18T13:21:25.345Z,102199
2018-04-18T13:23:53.647Z,102200
2018-04-18T13:26:22.753Z,102192
2018-04-18T13:28:51.097Z,102195
2018-04-18T13:31:19.902Z,102190
2018-04-18T13:33:48.303Z,102188
2018-04-18T13:36:17.445Z,102187
2018-04-18T13:38:45.801Z,102182
2018-04-18T13:41:14.125Z,102181
2018-04-18T13:43:42.836Z,102177
2018-04-18T13:46:11.243Z,102173
2018-04-18T13:48:39.675Z,102169
2018-04-18T13:51:08.224Z,102173
2018-04-18T13:53:36.659Z,102172
2018-04-18T13:56:05.986Z,102166
2018-04-18T13:58:34.328Z,102165
2018-04-18T14:01:02.837Z,102166
2018-04-18T14:03:32.155Z,102164
2018-04-18T14:06:00.666Z,102161
2018-04-18T14:08:29.001Z,102159
2018-04-18T14:10:57.515Z,102156
2018-04-18T14:13:26.080Z,102151
2018-04-18T14:15:54.413Z,102153
2018-04-18T14:18:22.847Z,102153
2018-04-18T14:20:51.484Z,102145
2018-04-18T14:23:19.896Z,102145
2018-04-18T14:25:48.212Z,102140
2018-04-18T14:28:16.585Z,102136
2018-04-18T14:30:44.905Z,102136
2018-04-18T14:33:15.209Z,102134
2018-04-18T14:35:44.567Z,102133
2018-04-18T14:38:12.947Z,102136
2018-04-18T14:40:41.344Z,102133
2018-04-18T14:43:09.642Z,102131
2018-04-18T14:45:38.017Z,102126
2018-04-18T14:48:06.327Z,102120
2018-04-18T14:50:35.422Z,102123
2018-04-18T14:53:04.548Z,102122
2018-04-18T14:55:32.882Z,102116
2018-04-18T14:58:01.283Z,102117
2018-04-18T15:00:29.624Z,102117
2018-04-18T15:02:57.929Z,102117
2018-04-18T15:05:28.254Z,102116
2018-04-18T15:07:57.568Z,102111
2018-04-18T15:10:26.045Z,102110
2018-04-18T15:12:54.396Z,102103
2018-04-18T15:15:22.736Z,102098
2018-04-18T15:17:51.094Z,102097
2018-04-18T15:20:20.220Z,102090
2018-04-18T15:22:48.589Z,102094
2018-04-18T15:25:16.924Z,102085
2018-04-18T15:27:45.995Z,102088
2018-04-18T15:30:14.334Z,102084
2018-04-18T15:32:42.698Z,102077
2018-04-18T15:35:11.171Z,102080
2018-04-18T15:37:40.834Z,102072
2018-04-18T15:40:09.147Z,102082
2018-04-18T15:42:37.495Z,102081
2018-04-18T15:45:05.873Z,102075
2018-04-18T15:47:34.291Z,102073
2018-04-18T15:50:02.651Z,102078
2018-04-18T15:52:31.007Z,102071
2018-04-18T15:54:59.480Z,102074
2018-04-18T15:57:28.625Z,102073
2018-04-18T15:59:56.994Z,102072
2018-04-18T16:02:25.366Z,102072
2018-04-18T16:04:54.465Z,102070
2018-04-18T16:07:23.565Z,102077
2018-04-18T16:09:53.144Z,102069
2018-04-18T16:12:21.623Z,102062
2018-04-18T16:14:50.265Z,102061
2018-04-18T16:17:18.653Z,102058
2018-04-18T16:19:47.010Z,102056
2018-04-18T16:22:15.342Z,102057
2018-04-18T16:24:43.716Z,102059
2018-04-18T16:27:12.819Z,102059
2018-04-18T16:29:44.010Z,102060
2018-04-18T16:32:12.691Z,102055
2018-04-18T16:34:41.174Z,102054
2018-04-18T16:37:09.496Z,102051
2018-04-18T16:39:37.986Z,102057
2018-04-18T16:42:06.322Z,102055
2018-04-18T16:44:36.704Z,102054
2018-04-18T16:47:07.045Z,102058
2018-04-18T16:49:35.383Z,102055
2018-04-18T16:52:03.972Z,102054
2018-04-18T16:54:32.558Z,102051
2018-04-18T16:57:00.919Z,102049
2018-04-18T16:59:30.153Z,102049
2018-04-18T17:01:59.256Z,102051
2018-04-18T17:04:27.776Z,102049
2018-04-18T17:06:56.126Z,102052
2018-04-18T17:09:24.484Z,102057
2018-04-18T17:11:53.936Z,102056
2018-04-18T17:14:22.296Z,102055
2018-04-18T17:16:50.759Z,102057
2018-04-18T17:19:19.224Z,102054
2018-04-18T17:21:48.486Z,102057
2018-04-18T17:24:18.635Z,102054
2018-04-18T17:26:47.814Z,102054
2018-04-18T17:29:16.188Z,102056
2018-04-18T17:31:44.639Z,102058
2018-04-18T17:34:13.290Z,102054
2018-04-18T17:36:41.799Z,102054
2018-04-18T17:39:10.209Z,102058
2018-04-18T17:41:38.589Z,102065
2018-04-18T17:44:07.225Z,102068
2018-04-18T17:46:35.612Z,102064
2018-04-18T17:49:05.513Z,102066
2018-04-18T17:51:34.598Z,102069
2018-04-18T17:54:04.935Z,102066
2018-04-18T17:56:33.300Z,102071
2018-04-18T17:59:02.543Z,102070
2018-04-18T18:01:30.930Z,102068
2018-04-18T18:04:00.528Z,102074
2018-04-18T18:06:29.148Z,102075
2018-04-18T18:08:57.853Z,102076
2018-04-18T18:11:26.964Z,102076
2018-04-18T18:13:55.458Z,102077
2018-04-18T18:16:23.933Z,102081
2018-04-18T18:18:52.644Z,102088
2018-04-18T18:21:20.993Z,102087
2018-04-18T18:23:49.610Z,102088
2018-04-18T18:26:17.978Z,102088
2018-04-18T18:28:46.686Z,102091
2018-04-18T18:31:15.324Z,102092
2018-04-18T18:33:43.685Z,102082
2018-04-18T18:36:12.849Z,102094
2018-04-18T18:38:41.291Z,102093
2018-04-18T18:41:09.703Z,102097
2018-04-18T18:43:38.050Z,102090
2018-04-18T18:46:06.472Z,102092
2018-04-18T18:48:34.804Z,102096
2018-04-18T18:51:03.294Z,102096
2018-04-18T18:53:31.784Z,102103
2018-04-18T18:56:00.284Z,102100
2018-04-18T18:58:28.796Z,102099
2018-04-18T19:00:57.281Z,102106
2018-04-18T19:03:26.700Z,102109
2018-04-18T19:05:56.244Z,102113
2018-04-18T19:08:24.649Z,102115
2018-04-18T19:10:53.052Z,102113
2018-04-18T19:13:21.524Z,102118
2018-04-18T19:15:49.990Z,102114
2018-04-18T19:18:18.544Z,102117
2018-04-18T19:20:46.937Z,102117
2018-04-18T19:23:15.483Z,102121
2018-04-18T19:25:43.866Z,102116
2018-04-18T19:28:12.312Z,102120
2018-04-18T19:30:41.542Z,102120
2018-04-18T19:33:09.918Z,102118
2018-04-18T19:35:38.277Z,102124
2018-04-18T19:38:06.759Z,102123
2018-04-18T19:40:36.219Z,102121
2018-04-18T19:43:05.090Z,102124
2018-04-18T19:45:33.780Z,102126
2018-04-18T19:48:02.212Z,102127
2018-04-18T19:50:31.550Z,102129
2018-04-18T19:53:00.240Z,102131
2018-04-18T19:55:28.717Z,102126
2018-04-18T19:57:58.311Z,102122
2018-04-18T20:00:26.672Z,102131
2018-04-18T20:02:56.510Z,102129
2018-04-18T20:05:24.931Z,102126
2018-04-18T20:07:53.347Z,102129
2018-04-18T20:10:22.697Z,102130
2018-04-18T20:12:52.150Z,102132
2018-04-18T20:15:21.579Z,102130
2018-04-18T20:17:49.894Z,102125
2018-04-18T20:20:18.233Z,102127
2018-04-18T20:22:46.740Z,102122
2018-04-18T20:25:15.131Z,102122
2018-04-18T20:27:43.556Z,102132
2018-04-18T20:30:12.014Z,102129
2018-04-18T20:32:41.313Z,102132
2018-04-18T20:35:10.608Z,102132
2018-04-18T20:37:40.050Z,102136
2018-04-18T20:40:08.574Z,102134
2018-04-18T20:42:37.098Z,102143
2018-04-18T20:45:05.581Z,102134
2018-04-18T20:47:34.738Z,102129
2018-04-18T20:50:03.383Z,102132
2018-04-18T20:52:34.521Z,102127
2018-04-18T20:55:02.971Z,102130
2018-04-18T20:57:32.297Z,102127
2018-04-18T21:00:00.685Z,102132
2018-04-18T21:02:29.092Z,102132
2018-04-18T21:04:57.616Z,102135
2018-04-18T21:07:26.807Z,102130
2018-04-18T21:09:55.894Z,102132
2018-04-18T21:12:25.117Z,102134
2018-04-18T21:14:54.329Z,102136
2018-04-18T21:17:22.666Z,102141
2018-04-18T21:19:51.918Z,102141
2018-04-18T21:22:20.355Z,102141
2018-04-18T21:24:49.504Z,102144
2018-04-18T21:27:18.217Z,102138
2018-04-18T21:29:46.557Z,102147
2018-04-18T21:32:14.917Z,102146
2018-04-18T21:34:43.240Z,102151
2018-04-18T21:37:11.573Z,102149
2018-04-18T21:39:40.085Z,102151
2018-04-18T21:42:08.447Z,102148
2018-04-18T21:44:36.857Z,102157
2018-04-18T21:47:06.946Z,102154
2018-04-18T21:49:35.470Z,102150
2018-04-18T21:52:04.025Z,102158
2018-04-18T21:54:32.566Z,102162
2018-04-18T21:57:01.770Z,102157
2018-04-18T21:59:31.428Z,102162
2018-04-18T22:02:00.685Z,102160
2018-04-18T22:04:29.166Z,102162
2018-04-18T22:06:57.682Z,102160
2018-04-18T22:09:25.990Z,102164
2018-04-18T22:11:54.451Z,102160
2018-04-18T22:14:22.807Z,102164
2018-04-18T22:16:51.219Z,102160
2018-04-18T22:19:20.851Z,102165
2018-04-18T22:21:49.939Z,102164
2018-04-18T22:24:19.017Z,102173
2018-04-18T22:26:47.303Z,102166
2018-04-18T22:29:15.703Z,102167
2018-04-18T22:31:44.019Z,102170
2018-04-18T22:34:12.480Z,102170
2018-04-18T22:36:40.830Z,102171
2018-04-18T22:39:10.188Z,102169
2018-04-18T22:41:38.475Z,102174
2018-04-18T22:44:06.808Z,102176
2018-04-18T22:46:35.213Z,102178
2018-04-18T22:49:03.542Z,102175
2018-04-18T22:51:33.853Z,102175
2018-04-18T22:54:03.073Z,102182
2018-04-18T22:56:31.463Z,102178
2018-04-18T22:58:59.957Z,102155
2018-04-18T23:01:30.276Z,102180
2018-04-18T23:03:58.563Z,102178
2018-04-18T23:06:26.885Z,102180
2018-04-18T23:08:55.249Z,102180
2018-04-18T23:11:24.453Z,102178
2018-04-18T23:13:52.779Z,102175
2018-04-18T23:16:21.224Z,102176
2018-04-18T23:18:49.495Z,102171
2018-04-18T23:21:18.575Z,102174
2018-04-18T23:23:46.962Z,102175
2018-04-18T23:26:15.242Z,102169
2018-04-18T23:28:44.680Z,102172
2018-04-18T23:31:13.016Z,102178
2018-04-18T23:33:41.328Z,102176
2018-04-18T23:36:09.627Z,102177
2018-04-18T23:38:38.040Z,102176
2018-04-18T23:41:06.352Z,102173
2018-04-18T23:43:34.890Z,102174
2018-04-18T23:46:03.234Z,102169
2018-04-18T23:48:31.643Z,102174
2018-04-18T23:51:00.015Z,102173
2018-04-18T23:53:28.299Z,102175
2018-04-18T23:55:56.653Z,102172
2018-04-18T23:58:24.954Z,102171
